createdAt,value
2019-04-26T00:00:57.755Z,70.48
2019-04-26T00:03:31.187Z,70.68
2019-04-26T00:06:14.454Z,71.02
2019-04-26T00:08:47.848Z,71.29
2019-04-26T00:11:24.222Z,71.86
2019-04-26T00:14:09.861Z,71.80
2019-04-26T00:16:43.201Z,71.87
2019-04-26T00:19:14.459Z,72.12
2019-04-26T00:21:49.157Z,72.36
2019-04-26T00:24:21.479Z,72.56
2019-04-26T00:26:52.924Z,72.53
2019-04-26T00:29:24.335Z,72.40
2019-04-26T00:31:55.801Z,72.38
2019-04-26T00:34:27.246Z,72.57
2019-04-26T00:36:58.727Z,72.56
2019-04-26T00:39:31.160Z,72.49
2019-04-26T00:42:02.767Z,72.44
2019-04-26T00:44:37.858Z,72.51
2019-04-26T00:47:10.607Z,72.71
2019-04-26T00:49:44.012Z,72.93
2019-04-26T00:52:16.012Z,72.75
2019-04-26T00:54:48.069Z,72.91
2019-04-26T00:57:20.302Z,72.50
2019-04-26T00:59:52.453Z,72.30
2019-04-26T01:02:31.617Z,72.43
2019-04-26T01:05:02.988Z,72.66
2019-04-26T01:07:34.520Z,71.98
2019-04-26T01:10:07.381Z,72.68
2019-04-26T01:12:38.595Z,72.62
2019-04-26T01:15:10.562Z,72.67
2019-04-26T01:17:42.023Z,72.60
2019-04-26T01:20:14.374Z,72.54
2019-04-26T01:22:49.625Z,72.38
2019-04-26T01:25:38.419Z,72.04
2019-04-26T01:28:14.654Z,72.88
2019-04-26T01:30:46.712Z,72.46
2019-04-26T01:33:18.774Z,72.19
2019-04-26T01:35:52.365Z,71.85
2019-04-26T01:38:23.790Z,71.94
2019-04-26T01:40:56.950Z,72.00
2019-04-26T01:43:39.866Z,71.99
2019-04-26T01:46:15.174Z,71.89
2019-04-26T01:49:10.847Z,71.56
2019-04-26T01:52:10.264Z,71.72
2019-04-26T01:54:44.774Z,71.35
2019-04-26T01:57:16.903Z,71.05
2019-04-26T01:59:53.324Z,71.20
2019-04-26T02:02:39.635Z,71.18
2019-04-26T02:05:25.907Z,71.08
2019-04-26T02:07:57.658Z,70.78
2019-04-26T02:10:29.182Z,70.76
2019-04-26T02:13:01.618Z,70.62
2019-04-26T02:15:34.472Z,69.87
2019-04-26T02:18:05.969Z,70.22
2019-04-26T02:21:16.370Z,70.16
2019-04-26T02:24:01.951Z,70.29
2019-04-26T02:26:35.566Z,69.88
2019-04-26T02:29:16.990Z,69.89
2019-04-26T02:31:52.298Z,69.34
2019-04-26T02:34:26.083Z,69.48
2019-04-26T02:37:01.577Z,70.24
2019-04-26T02:39:41.643Z,69.74
2019-04-26T02:42:26.661Z,70.63
2019-04-26T02:45:43.803Z,70.05
2019-04-26T02:48:22.695Z,69.33
2019-04-26T02:51:00.298Z,69.17
2019-04-26T02:54:06.298Z,69.85
2019-04-26T02:56:40.680Z,69.58
2019-04-26T02:59:16.661Z,69.81
2019-04-26T03:01:50.682Z,69.94
2019-04-26T03:04:24.476Z,70.21
2019-04-26T03:07:03.425Z,70.26
2019-04-26T03:09:38.727Z,70.41
2019-04-26T03:12:16.374Z,69.52
2019-04-26T03:15:12.203Z,69.51
2019-04-26T03:17:34.274Z,69.55
2019-04-26T03:20:15.163Z,69.10
2019-04-26T03:23:03.249Z,69.26
2019-04-26T03:25:54.442Z,68.92
2019-04-26T03:28:48.406Z,68.84
2019-04-26T03:31:27.050Z,68.69
2019-04-26T03:34:22.569Z,68.60
2019-04-26T03:37:44.531Z,68.43
2019-04-26T03:40:42.426Z,69.13
2019-04-26T03:43:27.298Z,68.92
2019-04-26T03:46:18.394Z,69.20
2019-04-26T03:49:37.403Z,68.90
2019-04-26T03:52:39.220Z,68.49
2019-04-26T03:55:31.547Z,69.00
2019-04-26T03:58:11.907Z,69.48
2019-04-26T04:01:02.545Z,68.46
2019-04-26T04:03:47.810Z,69.15
2019-04-26T04:06:24.557Z,68.54
2019-04-26T04:09:08.481Z,69.75
2019-04-26T04:11:49.175Z,70.25
2019-04-26T04:14:41.991Z,70.68
2019-04-26T04:17:28.189Z,71.39
2019-04-26T04:20:22.836Z,71.06
2019-04-26T04:23:27.452Z,70.98
2019-04-26T04:26:04.989Z,71.38
2019-04-26T04:28:48.272Z,71.24
2019-04-26T04:31:46.456Z,71.98
2019-04-26T04:34:35.255Z,73.26
2019-04-26T04:37:11.043Z,73.89
2019-04-26T04:40:07.896Z,73.66
2019-04-26T04:43:05.321Z,74.51
2019-04-26T04:46:17.252Z,72.65
2019-04-26T04:49:14.792Z,74.57
2019-04-26T04:52:02.307Z,73.46
2019-04-26T04:55:06.761Z,73.07
2019-04-26T04:58:00.073Z,71.73
2019-04-26T05:01:19.827Z,72.54
2019-04-26T05:04:23.643Z,73.33
2019-04-26T05:07:27.871Z,73.81
2019-04-26T05:10:17.664Z,74.00
2019-04-26T05:13:23.924Z,71.59
2019-04-26T05:16:38.005Z,74.35
2019-04-26T05:19:45.324Z,75.37
2019-04-26T05:22:30.457Z,75.81
2019-04-26T05:25:36.443Z,76.66
2019-04-26T05:28:39.189Z,78.04
2019-04-26T05:31:31.984Z,78.08
2019-04-26T05:34:30.292Z,79.48
2019-04-26T05:37:37.194Z,79.40
2019-04-26T05:41:00.256Z,79.11
2019-04-26T05:43:51.742Z,79.24
2019-04-26T05:46:37.630Z,79.45
2019-04-26T05:49:34.484Z,78.75
2019-04-26T05:52:46.826Z,80.22
2019-04-26T05:55:42.634Z,80.57
2019-04-26T05:59:01.594Z,80.11
2019-04-26T06:01:53.395Z,80.37
2019-04-26T06:05:08.577Z,80.09
2019-04-26T06:07:52.224Z,80.21
2019-04-26T06:10:43.528Z,80.14
2019-04-26T06:13:48.030Z,80.67
2019-04-26T06:16:50.511Z,80.94
2019-04-26T06:19:41.953Z,79.45
2019-04-26T06:22:42.562Z,79.79
2019-04-26T06:25:49.541Z,79.67
2019-04-26T06:28:30.003Z,79.79
2019-04-26T06:31:20.536Z,80.73
2019-04-26T06:33:56.617Z,80.18
2019-04-26T06:36:32.832Z,80.77
2019-04-26T06:39:16.834Z,80.56
2019-04-26T06:42:29.009Z,81.17
2019-04-26T06:45:27.856Z,80.77
2019-04-26T06:48:30.422Z,80.65
2019-04-26T06:51:24.256Z,80.61
2019-04-26T06:54:01.414Z,80.64
2019-04-26T06:57:07.898Z,79.99
2019-04-26T06:59:49.282Z,80.02
2019-04-26T07:02:57.426Z,80.37
2019-04-26T07:05:50.194Z,80.66
2019-04-26T07:08:39.304Z,81.11
2019-04-26T07:11:46.234Z,81.83
2019-04-26T07:14:37.117Z,81.26
2019-04-26T07:17:21.844Z,80.90
2019-04-26T07:20:31.551Z,81.71
2019-04-26T07:23:37.671Z,80.75
2019-04-26T07:26:28.567Z,81.39
2019-04-26T07:29:07.581Z,81.10
2019-04-26T07:32:16.015Z,81.64
2019-04-26T07:35:08.714Z,80.85
2019-04-26T07:38:18.018Z,81.18
2019-04-26T07:41:16.257Z,81.23
2019-04-26T07:44:31.720Z,80.44
2019-04-26T07:47:50.466Z,81.75
2019-04-26T07:51:06.534Z,81.54
2019-04-26T07:53:51.434Z,82.18
2019-04-26T07:56:27.429Z,81.42
2019-04-26T07:59:35.325Z,81.77
2019-04-26T08:02:41.078Z,80.83
2019-04-26T08:05:33.607Z,81.01
2019-04-26T08:08:10.912Z,80.87
2019-04-26T08:10:49.608Z,80.59
2019-04-26T08:13:24.535Z,80.46
2019-04-26T08:16:06.722Z,80.51
2019-04-26T08:18:44.209Z,80.79
2019-04-26T08:21:31.736Z,81.40
2019-04-26T08:24:10.011Z,81.09
2019-04-26T08:26:43.834Z,82.06
2019-04-26T08:29:18.804Z,82.24
2019-04-26T08:31:57.832Z,82.59
2019-04-26T08:34:33.803Z,82.62
2019-04-26T08:37:25.075Z,82.40
2019-04-26T08:40:01.181Z,82.58
2019-04-26T08:42:44.328Z,79.45
2019-04-26T08:45:19.573Z,81.31
2019-04-26T08:47:54.142Z,81.27
2019-04-26T08:50:42.273Z,80.66
2019-04-26T08:53:15.407Z,81.46
2019-04-26T08:55:49.334Z,80.26
2019-04-26T08:58:23.836Z,79.25
2019-04-26T09:01:00.270Z,78.94
2019-04-26T09:03:43.442Z,79.08
2019-04-26T09:06:28.296Z,79.45
2019-04-26T09:09:02.194Z,78.71
2019-04-26T09:11:36.776Z,78.04
2019-04-26T09:14:10.691Z,78.18
2019-04-26T09:16:50.110Z,78.28
2019-04-26T09:19:15.873Z,78.72
2019-04-26T09:21:55.943Z,77.59
2019-04-26T09:24:31.371Z,77.94
2019-04-26T09:27:04.549Z,76.92
2019-04-26T09:29:49.962Z,76.42
2019-04-26T09:32:29.428Z,77.57
2019-04-26T09:35:11.239Z,76.17
2019-04-26T09:37:50.943Z,76.70
2019-04-26T09:40:22.949Z,75.94
2019-04-26T09:43:04.889Z,76.29
2019-04-26T09:45:36.111Z,74.15
2019-04-26T09:48:09.254Z,75.45
2019-04-26T09:50:48.457Z,75.52
2019-04-26T09:53:20.074Z,74.35
2019-04-26T09:56:01.451Z,75.80
2019-04-26T09:58:32.958Z,76.61
2019-04-26T10:01:06.172Z,75.99
2019-04-26T10:03:37.610Z,76.47
2019-04-26T10:06:10.766Z,76.22
2019-04-26T10:08:47.086Z,75.11
2019-04-26T10:11:19.040Z,75.21
2019-04-26T10:13:54.842Z,75.73
2019-04-26T10:16:33.542Z,74.83
2019-04-26T10:19:08.523Z,74.99
2019-04-26T10:21:39.873Z,74.16
2019-04-26T10:24:11.335Z,74.48
2019-04-26T10:26:45.683Z,73.43
2019-04-26T10:29:17.278Z,73.06
2019-04-26T10:31:51.706Z,73.05
2019-04-26T10:34:21.562Z,72.13
2019-04-26T10:36:52.964Z,72.47
2019-04-26T10:39:24.728Z,71.45
2019-04-26T10:41:56.257Z,72.47
2019-04-26T10:44:29.241Z,72.29
2019-04-26T10:47:04.466Z,71.83
2019-04-26T10:49:44.516Z,69.42
2019-04-26T10:52:22.076Z,72.13
2019-04-26T10:55:07.192Z,68.95
2019-04-26T10:57:40.235Z,71.37
2019-04-26T11:00:30.174Z,71.21
2019-04-26T11:03:04.526Z,71.46
2019-04-26T11:05:35.149Z,72.97
2019-04-26T11:08:06.906Z,72.11
2019-04-26T11:10:48.502Z,70.64
2019-04-26T11:13:11.853Z,70.65
2019-04-26T11:15:43.238Z,69.87
2019-04-26T11:18:14.483Z,72.46
2019-04-26T11:20:46.705Z,71.12
2019-04-26T11:23:18.218Z,70.69
2019-04-26T11:25:49.640Z,70.42
2019-04-26T11:28:22.977Z,69.13
2019-04-26T11:30:57.362Z,69.46
2019-04-26T11:33:28.713Z,70.14
2019-04-26T11:36:03.424Z,70.15
2019-04-26T11:38:33.439Z,70.99
2019-04-26T11:41:06.608Z,70.96
2019-04-26T11:43:38.273Z,70.78
2019-04-26T11:46:09.757Z,71.96
2019-04-26T11:48:41.166Z,69.23
2019-04-26T11:51:12.532Z,69.42
2019-04-26T11:53:44.663Z,72.48
2019-04-26T11:56:16.549Z,68.61
2019-04-26T11:58:52.440Z,70.35
2019-04-26T12:01:23.771Z,69.21
2019-04-26T12:04:13.239Z,66.27
2019-04-26T12:06:48.997Z,67.12
2019-04-26T12:09:25.024Z,67.72
2019-04-26T12:12:04.572Z,68.87
2019-04-26T12:14:33.390Z,67.92
2019-04-26T12:17:05.508Z,68.08
2019-04-26T12:19:36.958Z,68.62
2019-04-26T12:22:09.890Z,68.87
2019-04-26T12:24:41.674Z,69.74
2019-04-26T12:27:14.353Z,70.54
2019-04-26T12:29:48.303Z,69.29
2019-04-26T12:32:20.620Z,68.95
2019-04-26T12:34:51.923Z,69.10
2019-04-26T12:37:23.283Z,69.15
2019-04-26T12:39:54.690Z,70.21
2019-04-26T12:42:26.192Z,69.91
2019-04-26T12:44:59.253Z,70.32
2019-04-26T12:47:44.524Z,68.38
2019-04-26T12:50:16.575Z,68.68
2019-04-26T12:52:57.357Z,66.35
2019-04-26T12:55:29.809Z,67.74
2019-04-26T12:58:01.179Z,66.39
2019-04-26T13:00:37.483Z,65.71
2019-04-26T13:03:19.774Z,68.39
2019-04-26T13:05:41.742Z,67.59
2019-04-26T13:08:16.875Z,64.81
2019-04-26T13:10:46.435Z,63.77
2019-04-26T13:13:28.492Z,66.84
2019-04-26T13:16:21.683Z,67.23
2019-04-26T13:18:51.787Z,66.04
2019-04-26T13:21:23.336Z,64.94
2019-04-26T13:23:54.702Z,68.38
2019-04-26T13:26:26.009Z,65.35
2019-04-26T13:28:58.779Z,64.79
2019-04-26T13:31:31.701Z,65.35
2019-04-26T13:34:05.617Z,65.14
2019-04-26T13:36:37.120Z,65.10
2019-04-26T13:39:13.423Z,63.95
2019-04-26T13:41:44.619Z,65.36
2019-04-26T13:44:18.842Z,64.27
2019-04-26T13:46:51.818Z,65.48
2019-04-26T13:49:28.539Z,66.58
2019-04-26T13:52:01.437Z,66.46
2019-04-26T13:54:37.243Z,65.75
2019-04-26T13:57:10.056Z,66.17
2019-04-26T13:59:45.200Z,67.10
2019-04-26T14:02:17.339Z,66.14
2019-04-26T14:04:49.320Z,66.26
2019-04-26T14:07:24.425Z,65.44
2019-04-26T14:09:53.981Z,64.44
2019-04-26T14:12:25.377Z,65.75
2019-04-26T14:14:56.731Z,66.67
2019-04-26T14:17:29.749Z,66.36
2019-04-26T14:20:01.201Z,66.54
2019-04-26T14:22:48.251Z,64.85
2019-04-26T14:25:21.534Z,64.93
2019-04-26T14:27:57.476Z,64.93
2019-04-26T14:30:28.841Z,63.31
2019-04-26T14:33:02.263Z,63.46
2019-04-26T14:35:33.907Z,62.56
2019-04-26T14:38:06.259Z,65.24
2019-04-26T14:40:42.780Z,65.67
2019-04-26T14:43:12.341Z,65.42
2019-04-26T14:45:55.360Z,64.82
2019-04-26T14:48:20.839Z,62.55
2019-04-26T14:50:53.386Z,61.65
2019-04-26T14:53:36.442Z,63.41
2019-04-26T15:00:44.771Z,61.52
2019-04-26T15:12:27.844Z,62.19
2019-04-26T15:15:08.279Z,61.86
2019-04-26T15:17:42.273Z,61.37
2019-04-26T15:20:16.817Z,62.56
2019-04-26T15:22:50.070Z,62.41
2019-04-26T15:25:21.785Z,61.37
2019-04-26T15:27:53.286Z,62.30
2019-04-26T15:30:29.087Z,65.05
2019-04-26T15:33:02.991Z,63.76
2019-04-26T15:35:35.878Z,63.30
2019-04-26T15:38:10.718Z,63.27
2019-04-26T15:40:56.664Z,63.15
2019-04-26T15:43:32.817Z,65.16
2019-04-26T15:46:13.921Z,64.35
2019-04-26T15:49:05.046Z,63.87
2019-04-26T15:51:39.361Z,64.94
2019-04-26T15:54:10.669Z,64.86
2019-04-26T15:56:49.277Z,65.75
2019-04-26T15:59:22.788Z,64.99
2019-04-26T16:01:56.373Z,64.80
2019-04-26T16:04:32.333Z,65.30
2019-04-26T16:07:02.838Z,64.75
2019-04-26T16:09:35.866Z,64.52
2019-04-26T16:12:07.593Z,64.73
2019-04-26T16:14:42.269Z,63.39
2019-04-26T16:17:17.267Z,61.34
2019-04-26T16:19:48.877Z,61.01
2019-04-26T16:22:20.178Z,62.03
2019-04-26T16:24:54.122Z,62.74
2019-04-26T16:27:31.165Z,61.07
2019-04-26T16:30:00.308Z,61.48
2019-04-26T16:32:54.167Z,61.61
2019-04-26T16:35:28.026Z,60.69
2019-04-26T16:38:00.120Z,62.95
2019-04-26T16:40:37.689Z,60.33
2019-04-26T16:43:09.068Z,62.32
2019-04-26T16:45:41.260Z,61.78
2019-04-26T16:48:13.574Z,62.06
2019-04-26T16:50:46.690Z,63.89
2019-04-26T16:53:37.696Z,64.22
2019-04-26T16:55:57.756Z,64.44
2019-04-26T16:58:30.870Z,64.95
2019-04-26T17:01:04.593Z,65.21
2019-04-26T17:03:38.170Z,65.62
2019-04-26T17:06:13.854Z,66.42
2019-04-26T17:08:49.858Z,67.02
2019-04-26T17:11:16.290Z,67.95
2019-04-26T17:13:51.506Z,68.18
2019-04-26T17:16:25.674Z,68.68
2019-04-26T17:18:59.674Z,69.75
2019-04-26T17:21:32.780Z,69.83
2019-04-26T17:24:05.898Z,70.02
2019-04-26T17:26:42.805Z,70.72
2019-04-26T17:29:16.320Z,71.08
2019-04-26T17:31:47.665Z,71.51
2019-04-26T17:34:22.554Z,72.01
2019-04-26T17:36:52.341Z,72.51
2019-04-26T17:39:23.939Z,72.83
2019-04-26T17:41:55.390Z,72.70
2019-04-26T17:44:28.572Z,72.57
2019-04-26T17:47:02.064Z,72.79
2019-04-26T17:49:35.008Z,73.14
2019-04-26T17:52:07.387Z,73.54
2019-04-26T17:54:47.563Z,73.17
2019-04-26T17:57:14.358Z,73.58
2019-04-26T17:59:47.792Z,74.06
2019-04-26T18:02:37.917Z,74.23
2019-04-26T18:04:58.850Z,74.59
2019-04-26T18:07:39.562Z,74.92
2019-04-26T18:10:02.318Z,74.88
2019-04-26T18:12:32.687Z,74.87
2019-04-26T18:15:09.352Z,75.09
2019-04-26T18:17:40.086Z,75.20
2019-04-26T18:20:28.098Z,75.35
2019-04-26T18:23:18.559Z,75.30
2019-04-26T18:25:50.519Z,75.28
2019-04-26T18:28:26.791Z,75.30
2019-04-26T18:30:59.799Z,75.54
2019-04-26T18:33:32.938Z,75.62
2019-04-26T18:36:07.200Z,75.76
2019-04-26T18:38:42.538Z,75.84
2019-04-26T18:41:13.641Z,75.76
2019-04-26T18:43:45.329Z,76.06
2019-04-26T18:46:21.232Z,76.36
2019-04-26T18:48:53.469Z,76.39
2019-04-26T18:51:26.505Z,76.30
2019-04-26T18:54:17.855Z,76.36
2019-04-26T18:56:55.198Z,76.95
2019-04-26T18:59:27.980Z,76.99
2019-04-26T19:02:00.474Z,76.99
2019-04-26T19:04:33.478Z,77.06
2019-04-26T19:07:12.167Z,76.82
2019-04-26T19:09:56.635Z,77.31
2019-04-26T19:12:18.397Z,77.04
2019-04-26T19:15:11.337Z,77.19
2019-04-26T19:17:54.682Z,77.47
2019-04-26T19:20:37.329Z,77.75
2019-04-26T19:23:09.490Z,78.44
2019-04-26T19:25:41.432Z,78.16
2019-04-26T19:28:23.811Z,78.29
2019-04-26T19:30:55.430Z,78.29
2019-04-26T19:33:26.872Z,78.11
2019-04-26T19:35:58.281Z,78.25
2019-04-26T19:38:29.739Z,78.27
2019-04-26T19:41:02.678Z,78.39
2019-04-26T19:43:35.269Z,78.23
2019-04-26T19:46:16.941Z,78.42
2019-04-26T19:49:06.207Z,78.44
2019-04-26T19:51:56.623Z,78.41
2019-04-26T19:54:38.163Z,78.65
2019-04-26T19:57:13.989Z,78.34
2019-04-26T19:59:45.419Z,78.38
2019-04-26T20:02:17.019Z,78.47
2019-04-26T20:04:48.472Z,78.62
2019-04-26T20:07:19.843Z,78.86
2019-04-26T20:09:52.483Z,78.62
2019-04-26T20:12:25.305Z,78.81
2019-04-26T20:14:58.547Z,79.08
2019-04-26T20:17:30.520Z,79.10
2019-04-26T20:20:02.120Z,79.17
2019-04-26T20:22:35.250Z,79.24
2019-04-26T20:25:07.318Z,79.57
2019-04-26T20:27:41.313Z,79.79
2019-04-26T20:30:27.568Z,80.01
2019-04-26T20:32:59.184Z,80.13
2019-04-26T20:35:31.874Z,80.25
2019-04-26T20:38:04.883Z,80.59
2019-04-26T20:40:36.606Z,80.41
2019-04-26T20:43:20.927Z,80.64
2019-04-26T20:46:07.928Z,80.52
2019-04-26T20:48:18.002Z,80.74
2019-04-26T20:50:52.006Z,80.50
2019-04-26T20:53:23.992Z,80.39
2019-04-26T20:55:55.491Z,81.00
2019-04-26T20:58:27.187Z,81.32
2019-04-26T21:00:58.651Z,81.86
2019-04-26T21:03:32.073Z,81.89
2019-04-26T21:06:03.333Z,82.26
2019-04-26T21:08:35.402Z,82.31
2019-04-26T21:11:07.110Z,82.41
2019-04-26T21:13:38.641Z,82.06
2019-04-26T21:16:13.261Z,82.08
2019-04-26T21:18:44.436Z,81.77
2019-04-26T21:21:16.546Z,81.76
2019-04-26T21:23:54.016Z,81.91
2019-04-26T21:26:46.571Z,81.88
2019-04-26T21:29:24.495Z,82.02
2019-04-26T21:32:03.669Z,82.12
2019-04-26T21:34:44.987Z,82.23
2019-04-26T21:37:34.438Z,82.62
2019-04-26T21:40:22.263Z,82.18
2019-04-26T21:42:47.784Z,82.26
2019-04-26T21:45:21.669Z,82.39
2019-04-26T21:47:54.199Z,82.26
2019-04-26T21:50:25.479Z,82.02
2019-04-26T21:53:05.193Z,81.85
2019-04-26T21:55:38.664Z,81.50
2019-04-26T21:58:10.380Z,81.49
2019-04-26T22:00:47.828Z,81.50
2019-04-26T22:03:20.929Z,81.57
2019-04-26T22:05:54.205Z,81.66
2019-04-26T22:08:27.340Z,82.04
2019-04-26T22:10:59.001Z,82.32
2019-04-26T22:13:44.791Z,82.38
2019-04-26T22:16:32.020Z,82.46
2019-04-26T22:19:12.755Z,82.05
2019-04-26T22:21:46.822Z,82.12
2019-04-26T22:24:19.898Z,82.27
2019-04-26T22:26:51.267Z,81.92
2019-04-26T22:29:23.031Z,81.87
2019-04-26T22:31:54.833Z,81.79
2019-04-26T22:34:26.369Z,81.37
2019-04-26T22:37:01.865Z,81.53
2019-04-26T22:39:32.702Z,81.52
2019-04-26T22:42:04.066Z,80.88
2019-04-26T22:44:36.938Z,80.37
2019-04-26T22:47:10.174Z,80.24
2019-04-26T22:49:45.119Z,80.09
2019-04-26T22:52:16.476Z,79.97
2019-04-26T22:54:47.940Z,79.89
2019-04-26T22:57:19.492Z,79.92
2019-04-26T22:59:50.864Z,79.96
2019-04-26T23:02:23.533Z,79.68
2019-04-26T23:04:56.005Z,79.21
2019-04-26T23:07:28.711Z,79.01
2019-04-26T23:09:59.963Z,78.33
2019-04-26T23:12:33.882Z,78.02
2019-04-26T23:15:13.446Z,77.00
2019-04-26T23:17:44.594Z,76.98
2019-04-26T23:20:17.631Z,77.16
2019-04-26T23:22:49.006Z,77.53
2019-04-26T23:25:20.234Z,77.75
2019-04-26T23:27:55.117Z,77.59
2019-04-26T23:30:27.695Z,77.96
2019-04-26T23:32:59.912Z,78.29
2019-04-26T23:35:37.766Z,78.68
2019-04-26T23:38:05.479Z,79.03
2019-04-26T23:40:36.964Z,79.06
2019-04-26T23:43:08.339Z,78.92
2019-04-26T23:45:43.553Z,78.57
2019-04-26T23:48:13.409Z,78.91
2019-04-26T23:50:45.086Z,78.74
2019-04-26T23:53:20.161Z,78.34
2019-04-26T23:55:49.691Z,78.23
2019-04-26T23:58:21.065Z,78.41
